sensor_id;sensor_type;location;lat;lon;timestamp;temperature;humidity
85191;DHT22;75560;0.000;0.000;2024-03-02T00:02:13;20.50;46.00
85191;DHT22;75560;0.000;0.000;2024-03-02T00:04:39;20.40;46.10
85191;DHT22;75560;0.000;0.000;2024-03-02T00:07:06;20.40;46.20
85191;DHT22;75560;0.000;0.000;2024-03-02T00:09:32;20.40;45.90
85191;DHT22;75560;0.000;0.000;2024-03-02T00:11:59;20.30;46.20
85191;DHT22;75560;0.000;0.000;2024-03-02T00:14:25;20.30;46.60
85191;DHT22;75560;0.000;0.000;2024-03-02T00:16:51;20.30;46.60
85191;DHT22;75560;0.000;0.000;2024-03-02T00:19:17;20.20;46.30
85191;DHT22;75560;0.000;0.000;2024-03-02T00:21:42;20.20;47.10
85191;DHT22;75560;0.000;0.000;2024-03-02T00:24:31;20.10;46.80
85191;DHT22;75560;0.000;0.000;2024-03-02T00:26:57;20.10;46.70
85191;DHT22;75560;0.000;0.000;2024-03-02T00:29:23;20.10;47.10
85191;DHT22;75560;0.000;0.000;2024-03-02T00:31:49;20.00;46.80
85191;DHT22;75560;0.000;0.000;2024-03-02T00:34:15;20.10;46.90
85191;DHT22;75560;0.000;0.000;2024-03-02T00:36:42;20.00;47.40
85191;DHT22;75560;0.000;0.000;2024-03-02T00:39:08;20.00;46.90
85191;DHT22;75560;0.000;0.000;2024-03-02T00:41:34;20.00;47.10
85191;DHT22;75560;0.000;0.000;2024-03-02T00:44:03;20.00;47.20
85191;DHT22;75560;0.000;0.000;2024-03-02T00:46:33;20.10;46.80
85191;DHT22;75560;0.000;0.000;2024-03-02T00:49:00;20.10;46.70
85191;DHT22;75560;0.000;0.000;2024-03-02T00:51:28;20.10;46.90
85191;DHT22;75560;0.000;0.000;2024-03-02T00:53:57;20.10;46.30
85191;DHT22;75560;0.000;0.000;2024-03-02T00:56:26;20.20;46.50
85191;DHT22;75560;0.000;0.000;2024-03-02T00:58:52;20.20;46.40
85191;DHT22;75560;0.000;0.000;2024-03-02T01:01:18;20.20;46.70
85191;DHT22;75560;0.000;0.000;2024-03-02T01:03:45;20.20;46.50
85191;DHT22;75560;0.000;0.000;2024-03-02T01:06:11;20.20;46.30
85191;DHT22;75560;0.000;0.000;2024-03-02T01:08:37;20.20;46.40
85191;DHT22;75560;0.000;0.000;2024-03-02T01:11:03;20.20;46.90
85191;DHT22;75560;0.000;0.000;2024-03-02T01:13:29;20.30;46.50
85191;DHT22;75560;0.000;0.000;2024-03-02T01:15:55;20.40;46.00
85191;DHT22;75560;0.000;0.000;2024-03-02T01:18:20;20.60;45.80
85191;DHT22;75560;0.000;0.000;2024-03-02T01:20:47;20.60;45.70
85191;DHT22;75560;0.000;0.000;2024-03-02T01:23:13;20.60;45.90
85191;DHT22;75560;0.000;0.000;2024-03-02T01:25:39;20.60;45.60
85191;DHT22;75560;0.000;0.000;2024-03-02T01:28:05;20.50;45.60
85191;DHT22;75560;0.000;0.000;2024-03-02T01:30:31;20.50;45.70
85191;DHT22;75560;0.000;0.000;2024-03-02T01:32:56;20.50;45.20
85191;DHT22;75560;0.000;0.000;2024-03-02T01:35:24;20.40;45.90
85191;DHT22;75560;0.000;0.000;2024-03-02T01:37:51;20.40;45.50
85191;DHT22;75560;0.000;0.000;2024-03-02T01:40:17;20.40;46.10
85191;DHT22;75560;0.000;0.000;2024-03-02T01:42:43;20.40;46.20
85191;DHT22;75560;0.000;0.000;2024-03-02T01:45:09;20.30;46.20
85191;DHT22;75560;0.000;0.000;2024-03-02T01:47:35;20.30;46.40
85191;DHT22;75560;0.000;0.000;2024-03-02T01:50:00;20.20;46.90
85191;DHT22;75560;0.000;0.000;2024-03-02T01:52:27;20.20;46.60
85191;DHT22;75560;0.000;0.000;2024-03-02T01:54:52;20.10;46.80
85191;DHT22;75560;0.000;0.000;2024-03-02T01:57:18;20.10;47.00
85191;DHT22;75560;0.000;0.000;2024-03-02T01:59:44;20.10;46.10
85191;DHT22;75560;0.000;0.000;2024-03-02T02:02:10;20.00;46.80
85191;DHT22;75560;0.000;0.000;2024-03-02T02:04:36;20.00;46.80
85191;DHT22;75560;0.000;0.000;2024-03-02T02:07:01;20.00;46.90
85191;DHT22;75560;0.000;0.000;2024-03-02T02:09:27;20.00;46.90
85191;DHT22;75560;0.000;0.000;2024-03-02T02:11:52;20.00;47.40
85191;DHT22;75560;0.000;0.000;2024-03-02T02:14:18;19.90;47.70
85191;DHT22;75560;0.000;0.000;2024-03-02T02:16:44;19.90;47.70
85191;DHT22;75560;0.000;0.000;2024-03-02T02:19:11;19.90;47.60
85191;DHT22;75560;0.000;0.000;2024-03-02T02:21:36;20.00;47.30
85191;DHT22;75560;0.000;0.000;2024-03-02T02:24:02;20.00;47.60
85191;DHT22;75560;0.000;0.000;2024-03-02T02:26:29;20.00;47.30
85191;DHT22;75560;0.000;0.000;2024-03-02T02:28:55;20.10;47.30
85191;DHT22;75560;0.000;0.000;2024-03-02T02:31:20;20.10;47.00
85191;DHT22;75560;0.000;0.000;2024-03-02T02:33:46;20.10;46.50
85191;DHT22;75560;0.000;0.000;2024-03-02T02:36:11;20.20;46.50
85191;DHT22;75560;0.000;0.000;2024-03-02T02:38:40;20.30;46.40
85191;DHT22;75560;0.000;0.000;2024-03-02T02:41:07;20.50;45.70
85191;DHT22;75560;0.000;0.000;2024-03-02T02:43:33;20.50;46.10
85191;DHT22;75560;0.000;0.000;2024-03-02T02:45:59;20.50;46.20
85191;DHT22;75560;0.000;0.000;2024-03-02T02:48:24;20.50;45.80
85191;DHT22;75560;0.000;0.000;2024-03-02T02:50:50;20.50;45.90
85191;DHT22;75560;0.000;0.000;2024-03-02T02:53:16;20.40;46.20
85191;DHT22;75560;0.000;0.000;2024-03-02T02:55:42;20.40;46.20
85191;DHT22;75560;0.000;0.000;2024-03-02T02:58:09;20.30;46.60
85191;DHT22;75560;0.000;0.000;2024-03-02T03:00:34;20.30;46.60
85191;DHT22;75560;0.000;0.000;2024-03-02T03:03:02;20.40;46.40
85191;DHT22;75560;0.000;0.000;2024-03-02T03:05:27;20.30;46.60
85191;DHT22;75560;0.000;0.000;2024-03-02T03:07:53;20.30;46.50
85191;DHT22;75560;0.000;0.000;2024-03-02T03:10:18;20.20;46.10
85191;DHT22;75560;0.000;0.000;2024-03-02T03:12:47;20.20;46.90
85191;DHT22;75560;0.000;0.000;2024-03-02T03:15:13;20.10;47.20
85191;DHT22;75560;0.000;0.000;2024-03-02T03:17:39;20.10;47.40
85191;DHT22;75560;0.000;0.000;2024-03-02T03:20:07;20.00;47.20
85191;DHT22;75560;0.000;0.000;2024-03-02T03:22:35;20.00;47.20
85191;DHT22;75560;0.000;0.000;2024-03-02T03:25:01;20.00;47.60
85191;DHT22;75560;0.000;0.000;2024-03-02T03:27:27;20.00;47.50
85191;DHT22;75560;0.000;0.000;2024-03-02T03:29:53;20.10;47.40
85191;DHT22;75560;0.000;0.000;2024-03-02T03:32:19;20.20;46.80
85191;DHT22;75560;0.000;0.000;2024-03-02T03:34:45;20.40;46.10
85191;DHT22;75560;0.000;0.000;2024-03-02T03:37:11;20.40;46.40
85191;DHT22;75560;0.000;0.000;2024-03-02T03:39:36;20.40;46.10
85191;DHT22;75560;0.000;0.000;2024-03-02T03:42:02;20.40;45.90
85191;DHT22;75560;0.000;0.000;2024-03-02T03:44:28;20.40;46.20
85191;DHT22;75560;0.000;0.000;2024-03-02T03:46:53;20.30;46.30
85191;DHT22;75560;0.000;0.000;2024-03-02T03:49:19;20.30;46.70
85191;DHT22;75560;0.000;0.000;2024-03-02T03:51:46;20.20;46.80
85191;DHT22;75560;0.000;0.000;2024-03-02T03:54:11;20.20;46.60
85191;DHT22;75560;0.000;0.000;2024-03-02T03:56:37;20.10;47.00
85191;DHT22;75560;0.000;0.000;2024-03-02T03:59:03;20.10;47.20
85191;DHT22;75560;0.000;0.000;2024-03-02T04:01:30;20.10;47.30
85191;DHT22;75560;0.000;0.000;2024-03-02T04:03:55;20.10;47.40
85191;DHT22;75560;0.000;0.000;2024-03-02T04:06:21;20.10;47.20
85191;DHT22;75560;0.000;0.000;2024-03-02T04:08:46;20.10;46.90
85191;DHT22;75560;0.000;0.000;2024-03-02T04:11:12;20.10;47.20
85191;DHT22;75560;0.000;0.000;2024-03-02T04:13:37;20.10;46.80
85191;DHT22;75560;0.000;0.000;2024-03-02T04:16:03;20.10;46.80
85191;DHT22;75560;0.000;0.000;2024-03-02T04:18:30;20.20;46.70
85191;DHT22;75560;0.000;0.000;2024-03-02T04:20:57;20.20;46.70
85191;DHT22;75560;0.000;0.000;2024-03-02T04:23:25;20.10;46.70
85191;DHT22;75560;0.000;0.000;2024-03-02T04:25:50;20.20;46.80
85191;DHT22;75560;0.000;0.000;2024-03-02T04:28:16;20.10;46.90
85191;DHT22;75560;0.000;0.000;2024-03-02T04:30:41;20.20;46.90
85191;DHT22;75560;0.000;0.000;2024-03-02T04:33:07;20.20;46.90
85191;DHT22;75560;0.000;0.000;2024-03-02T04:35:35;20.10;46.90
85191;DHT22;75560;0.000;0.000;2024-03-02T04:38:01;20.20;46.80
85191;DHT22;75560;0.000;0.000;2024-03-02T04:40:26;20.10;47.00
85191;DHT22;75560;0.000;0.000;2024-03-02T04:42:52;20.20;46.70
85191;DHT22;75560;0.000;0.000;2024-03-02T04:45:17;20.20;46.90
85191;DHT22;75560;0.000;0.000;2024-03-02T04:47:43;20.20;46.70
85191;DHT22;75560;0.000;0.000;2024-03-02T04:50:08;20.30;46.80
85191;DHT22;75560;0.000;0.000;2024-03-02T04:52:34;20.30;46.70
85191;DHT22;75560;0.000;0.000;2024-03-02T04:55:01;20.30;46.50
85191;DHT22;75560;0.000;0.000;2024-03-02T04:57:42;20.30;46.80
85191;DHT22;75560;0.000;0.000;2024-03-02T05:00:08;20.30;46.70
85191;DHT22;75560;0.000;0.000;2024-03-02T05:02:34;20.20;46.40
85191;DHT22;75560;0.000;0.000;2024-03-02T05:05:00;20.30;46.60
85191;DHT22;75560;0.000;0.000;2024-03-02T05:07:26;20.30;46.50
85191;DHT22;75560;0.000;0.000;2024-03-02T05:09:51;20.30;46.70
85191;DHT22;75560;0.000;0.000;2024-03-02T05:12:17;20.30;46.30
85191;DHT22;75560;0.000;0.000;2024-03-02T05:14:43;20.40;46.20
85191;DHT22;75560;0.000;0.000;2024-03-02T05:17:08;20.40;46.30
85191;DHT22;75560;0.000;0.000;2024-03-02T05:19:34;20.40;46.20
85191;DHT22;75560;0.000;0.000;2024-03-02T05:21:59;20.40;46.40
85191;DHT22;75560;0.000;0.000;2024-03-02T05:24:25;20.40;45.80
85191;DHT22;75560;0.000;0.000;2024-03-02T05:26:53;20.50;46.00
85191;DHT22;75560;0.000;0.000;2024-03-02T05:29:18;20.50;45.80
85191;DHT22;75560;0.000;0.000;2024-03-02T05:31:44;20.50;45.80
85191;DHT22;75560;0.000;0.000;2024-03-02T05:34:09;20.60;45.50
85191;DHT22;75560;0.000;0.000;2024-03-02T05:36:35;20.70;45.40
85191;DHT22;75560;0.000;0.000;2024-03-02T05:39:01;20.90;44.60
85191;DHT22;75560;0.000;0.000;2024-03-02T05:41:27;21.00;44.90
85191;DHT22;75560;0.000;0.000;2024-03-02T05:43:53;21.00;44.40
85191;DHT22;75560;0.000;0.000;2024-03-02T05:46:18;21.10;44.40
85191;DHT22;75560;0.000;0.000;2024-03-02T05:48:44;21.20;44.30
85191;DHT22;75560;0.000;0.000;2024-03-02T05:51:09;21.30;44.10
85191;DHT22;75560;0.000;0.000;2024-03-02T05:53:35;21.30;43.90
85191;DHT22;75560;0.000;0.000;2024-03-02T05:56:04;21.40;43.70
85191;DHT22;75560;0.000;0.000;2024-03-02T05:58:30;21.40;43.80
85191;DHT22;75560;0.000;0.000;2024-03-02T06:01:14;21.30;43.80
85191;DHT22;75560;0.000;0.000;2024-03-02T06:03:39;21.40;43.60
85191;DHT22;75560;0.000;0.000;2024-03-02T06:06:05;21.30;44.10
85191;DHT22;75560;0.000;0.000;2024-03-02T06:08:31;21.30;43.90
85191;DHT22;75560;0.000;0.000;2024-03-02T06:10:57;21.30;43.90
85191;DHT22;75560;0.000;0.000;2024-03-02T06:13:23;21.30;44.40
85191;DHT22;75560;0.000;0.000;2024-03-02T06:15:50;21.30;43.90
85191;DHT22;75560;0.000;0.000;2024-03-02T06:18:16;21.10;44.60
85191;DHT22;75560;0.000;0.000;2024-03-02T06:20:41;21.30;44.30
85191;DHT22;75560;0.000;0.000;2024-03-02T06:23:08;21.30;44.60
85191;DHT22;75560;0.000;0.000;2024-03-02T06:25:33;21.50;44.40
85191;DHT22;75560;0.000;0.000;2024-03-02T06:27:59;21.70;45.00
85191;DHT22;75560;0.000;0.000;2024-03-02T06:30:24;22.00;43.90
85191;DHT22;75560;0.000;0.000;2024-03-02T06:32:50;22.10;42.50
85191;DHT22;75560;0.000;0.000;2024-03-02T06:35:15;22.00;42.10
85191;DHT22;75560;0.000;0.000;2024-03-02T06:37:41;21.90;41.60
85191;DHT22;75560;0.000;0.000;2024-03-02T06:40:07;21.80;41.50
85191;DHT22;75560;0.000;0.000;2024-03-02T06:42:34;21.90;41.00
85191;DHT22;75560;0.000;0.000;2024-03-02T06:45:00;21.70;41.20
85191;DHT22;75560;0.000;0.000;2024-03-02T06:47:25;21.60;40.30
85191;DHT22;75560;0.000;0.000;2024-03-02T06:49:51;21.70;40.00
85191;DHT22;75560;0.000;0.000;2024-03-02T06:52:16;21.70;39.20
85191;DHT22;75560;0.000;0.000;2024-03-02T06:54:42;21.60;39.60
85191;DHT22;75560;0.000;0.000;2024-03-02T06:57:07;21.40;40.10
85191;DHT22;75560;0.000;0.000;2024-03-02T06:59:33;21.40;39.30
85191;DHT22;75560;0.000;0.000;2024-03-02T07:01:59;21.30;39.40
85191;DHT22;75560;0.000;0.000;2024-03-02T07:04:24;21.30;38.70
85191;DHT22;75560;0.000;0.000;2024-03-02T07:06:50;21.40;38.30
85191;DHT22;75560;0.000;0.000;2024-03-02T07:09:16;21.40;38.00
85191;DHT22;75560;0.000;0.000;2024-03-02T07:11:42;21.40;38.10
85191;DHT22;75560;0.000;0.000;2024-03-02T07:14:07;21.10;39.10
85191;DHT22;75560;0.000;0.000;2024-03-02T07:16:33;21.00;38.90
85191;DHT22;75560;0.000;0.000;2024-03-02T07:19:00;20.90;38.90
85191;DHT22;75560;0.000;0.000;2024-03-02T07:21:27;20.90;38.80
85191;DHT22;75560;0.000;0.000;2024-03-02T07:23:53;20.80;38.80
85191;DHT22;75560;0.000;0.000;2024-03-02T07:26:18;20.90;39.30
85191;DHT22;75560;0.000;0.000;2024-03-02T07:28:46;20.90;39.90
85191;DHT22;75560;0.000;0.000;2024-03-02T07:31:13;21.00;40.00
85191;DHT22;75560;0.000;0.000;2024-03-02T07:33:39;21.10;40.00
85191;DHT22;75560;0.000;0.000;2024-03-02T07:36:05;21.10;40.10
85191;DHT22;75560;0.000;0.000;2024-03-02T07:38:31;21.00;40.60
85191;DHT22;75560;0.000;0.000;2024-03-02T07:40:58;20.90;41.00
85191;DHT22;75560;0.000;0.000;2024-03-02T07:43:24;20.70;41.50
85191;DHT22;75560;0.000;0.000;2024-03-02T07:45:50;20.50;42.20
85191;DHT22;75560;0.000;0.000;2024-03-02T07:48:15;20.50;42.40
85191;DHT22;75560;0.000;0.000;2024-03-02T07:50:41;20.30;42.60
85191;DHT22;75560;0.000;0.000;2024-03-02T07:53:08;20.30;43.10
85191;DHT22;75560;0.000;0.000;2024-03-02T07:55:34;20.20;44.10
85191;DHT22;75560;0.000;0.000;2024-03-02T07:58:00;20.20;44.20
85191;DHT22;75560;0.000;0.000;2024-03-02T08:00:26;20.40;43.60
85191;DHT22;75560;0.000;0.000;2024-03-02T08:02:53;20.30;43.80
85191;DHT22;75560;0.000;0.000;2024-03-02T08:05:19;20.40;43.70
85191;DHT22;75560;0.000;0.000;2024-03-02T08:07:45;20.30;44.00
85191;DHT22;75560;0.000;0.000;2024-03-02T08:10:11;20.30;44.40
85191;DHT22;75560;0.000;0.000;2024-03-02T08:12:36;20.30;44.30
85191;DHT22;75560;0.000;0.000;2024-03-02T08:15:02;20.30;44.40
85191;DHT22;75560;0.000;0.000;2024-03-02T08:17:28;20.20;44.70
85191;DHT22;75560;0.000;0.000;2024-03-02T08:19:54;20.20;44.90
85191;DHT22;75560;0.000;0.000;2024-03-02T08:22:19;20.20;45.00
85191;DHT22;75560;0.000;0.000;2024-03-02T08:24:45;20.20;45.00
85191;DHT22;75560;0.000;0.000;2024-03-02T08:27:12;20.10;45.30
85191;DHT22;75560;0.000;0.000;2024-03-02T08:29:38;20.00;45.20
85191;DHT22;75560;0.000;0.000;2024-03-02T08:32:04;19.90;45.30
85191;DHT22;75560;0.000;0.000;2024-03-02T08:34:30;19.80;45.50
85191;DHT22;75560;0.000;0.000;2024-03-02T08:36:56;19.80;45.50
85191;DHT22;75560;0.000;0.000;2024-03-02T08:39:21;19.80;45.30
85191;DHT22;75560;0.000;0.000;2024-03-02T08:41:47;19.80;45.30
85191;DHT22;75560;0.000;0.000;2024-03-02T08:44:13;19.90;45.20
85191;DHT22;75560;0.000;0.000;2024-03-02T08:46:40;19.90;45.10
85191;DHT22;75560;0.000;0.000;2024-03-02T08:49:06;19.90;45.20
85191;DHT22;75560;0.000;0.000;2024-03-02T08:51:31;19.90;45.30
85191;DHT22;75560;0.000;0.000;2024-03-02T08:53:57;20.10;45.90
85191;DHT22;75560;0.000;0.000;2024-03-02T08:56:23;20.10;45.60
85191;DHT22;75560;0.000;0.000;2024-03-02T08:58:50;20.10;45.90
85191;DHT22;75560;0.000;0.000;2024-03-02T09:01:16;20.10;45.80
85191;DHT22;75560;0.000;0.000;2024-03-02T09:03:42;20.30;45.40
85191;DHT22;75560;0.000;0.000;2024-03-02T09:06:10;20.50;44.80
85191;DHT22;75560;0.000;0.000;2024-03-02T09:08:35;20.50;45.40
85191;DHT22;75560;0.000;0.000;2024-03-02T09:11:02;20.60;45.30
85191;DHT22;75560;0.000;0.000;2024-03-02T09:13:28;21.10;44.10
85191;DHT22;75560;0.000;0.000;2024-03-02T09:15:54;21.50;43.00
85191;DHT22;75560;0.000;0.000;2024-03-02T09:18:20;21.50;42.90
85191;DHT22;75560;0.000;0.000;2024-03-02T09:20:45;21.60;42.50
85191;DHT22;75560;0.000;0.000;2024-03-02T09:23:11;21.80;42.50
85191;DHT22;75560;0.000;0.000;2024-03-02T09:25:37;21.70;42.30
85191;DHT22;75560;0.000;0.000;2024-03-02T09:28:03;21.40;43.30
85191;DHT22;75560;0.000;0.000;2024-03-02T09:30:28;21.20;43.90
85191;DHT22;75560;0.000;0.000;2024-03-02T09:32:54;21.00;44.20
85191;DHT22;75560;0.000;0.000;2024-03-02T09:35:20;20.90;44.80
85191;DHT22;75560;0.000;0.000;2024-03-02T09:37:45;20.80;45.20
85191;DHT22;75560;0.000;0.000;2024-03-02T09:40:12;20.70;45.80
85191;DHT22;75560;0.000;0.000;2024-03-02T09:42:38;20.80;45.30
85191;DHT22;75560;0.000;0.000;2024-03-02T09:45:05;20.70;45.80
85191;DHT22;75560;0.000;0.000;2024-03-02T09:47:31;20.60;45.00
85191;DHT22;75560;0.000;0.000;2024-03-02T09:49:57;20.60;45.10
85191;DHT22;75560;0.000;0.000;2024-03-02T09:52:22;20.70;45.20
85191;DHT22;75560;0.000;0.000;2024-03-02T09:54:48;20.80;44.90
85191;DHT22;75560;0.000;0.000;2024-03-02T09:57:14;20.90;44.70
85191;DHT22;75560;0.000;0.000;2024-03-02T09:59:40;21.00;44.50
85191;DHT22;75560;0.000;0.000;2024-03-02T10:02:06;21.20;43.90
85191;DHT22;75560;0.000;0.000;2024-03-02T10:04:33;21.30;44.00
85191;DHT22;75560;0.000;0.000;2024-03-02T10:07:10;21.30;43.80
85191;DHT22;75560;0.000;0.000;2024-03-02T10:09:37;21.40;43.60
85191;DHT22;75560;0.000;0.000;2024-03-02T10:12:09;21.40;43.60
85191;DHT22;75560;0.000;0.000;2024-03-02T10:14:35;21.50;43.50
85191;DHT22;75560;0.000;0.000;2024-03-02T10:17:27;21.50;43.80
85191;DHT22;75560;0.000;0.000;2024-03-02T10:19:56;21.50;43.60
85191;DHT22;75560;0.000;0.000;2024-03-02T10:22:23;21.50;43.70
85191;DHT22;75560;0.000;0.000;2024-03-02T10:24:49;21.80;43.20
85191;DHT22;75560;0.000;0.000;2024-03-02T10:27:23;22.10;42.60
85191;DHT22;75560;0.000;0.000;2024-03-02T10:29:49;22.20;42.40
85191;DHT22;75560;0.000;0.000;2024-03-02T10:32:15;22.20;42.20
85191;DHT22;75560;0.000;0.000;2024-03-02T10:34:44;22.30;42.00
85191;DHT22;75560;0.000;0.000;2024-03-02T10:37:11;22.40;41.60
85191;DHT22;75560;0.000;0.000;2024-03-02T10:39:37;22.70;40.80
85191;DHT22;75560;0.000;0.000;2024-03-02T10:42:05;22.80;40.70
85191;DHT22;75560;0.000;0.000;2024-03-02T10:44:32;22.90;40.30
85191;DHT22;75560;0.000;0.000;2024-03-02T10:47:03;22.60;40.80
85191;DHT22;75560;0.000;0.000;2024-03-02T10:49:32;22.70;40.50
85191;DHT22;75560;0.000;0.000;2024-03-02T10:52:01;22.60;41.30
85191;DHT22;75560;0.000;0.000;2024-03-02T10:54:27;22.30;42.20
85191;DHT22;75560;0.000;0.000;2024-03-02T10:56:58;22.10;42.70
85191;DHT22;75560;0.000;0.000;2024-03-02T11:01:59;22.30;42.40
85191;DHT22;75560;0.000;0.000;2024-03-02T11:04:27;22.40;41.80
85191;DHT22;75560;0.000;0.000;2024-03-02T11:07:09;22.10;42.80
85191;DHT22;75560;0.000;0.000;2024-03-02T11:09:41;22.10;42.50
85191;DHT22;75560;0.000;0.000;2024-03-02T11:12:26;22.60;41.80
85191;DHT22;75560;0.000;0.000;2024-03-02T11:14:55;23.00;40.80
85191;DHT22;75560;0.000;0.000;2024-03-02T11:17:21;23.30;40.10
85191;DHT22;75560;0.000;0.000;2024-03-02T11:19:48;23.40;39.50
85191;DHT22;75560;0.000;0.000;2024-03-02T11:22:15;23.30;40.00
85191;DHT22;75560;0.000;0.000;2024-03-02T11:24:48;23.30;40.20
85191;DHT22;75560;0.000;0.000;2024-03-02T11:27:14;23.20;40.20
85191;DHT22;75560;0.000;0.000;2024-03-02T11:32:14;23.60;39.00
85191;DHT22;75560;0.000;0.000;2024-03-02T11:34:42;23.40;39.20
85191;DHT22;75560;0.000;0.000;2024-03-02T11:37:12;23.30;39.60
85191;DHT22;75560;0.000;0.000;2024-03-02T11:39:39;22.80;40.60
85191;DHT22;75560;0.000;0.000;2024-03-02T11:42:08;22.60;41.10
85191;DHT22;75560;0.000;0.000;2024-03-02T11:44:37;22.60;41.20
85191;DHT22;75560;0.000;0.000;2024-03-02T11:47:08;22.50;41.50
85191;DHT22;75560;0.000;0.000;2024-03-02T11:49:40;22.40;42.00
85191;DHT22;75560;0.000;0.000;2024-03-02T11:52:08;22.50;42.00
85191;DHT22;75560;0.000;0.000;2024-03-02T11:54:36;22.70;41.60
85191;DHT22;75560;0.000;0.000;2024-03-02T11:57:03;22.80;41.40
85191;DHT22;75560;0.000;0.000;2024-03-02T11:59:29;22.90;41.90
85191;DHT22;75560;0.000;0.000;2024-03-02T12:01:55;22.90;42.50
85191;DHT22;75560;0.000;0.000;2024-03-02T12:04:22;22.90;42.20
85191;DHT22;75560;0.000;0.000;2024-03-02T12:06:54;23.10;42.40
85191;DHT22;75560;0.000;0.000;2024-03-02T12:09:21;23.20;42.30
85191;DHT22;75560;0.000;0.000;2024-03-02T12:11:46;23.30;42.10
85191;DHT22;75560;0.000;0.000;2024-03-02T12:14:12;23.20;42.20
85191;DHT22;75560;0.000;0.000;2024-03-02T12:16:38;23.00;43.00
85191;DHT22;75560;0.000;0.000;2024-03-02T12:19:07;22.90;43.40
85191;DHT22;75560;0.000;0.000;2024-03-02T12:21:33;22.70;43.80
85191;DHT22;75560;0.000;0.000;2024-03-02T12:23:59;22.60;44.00
85191;DHT22;75560;0.000;0.000;2024-03-02T12:26:25;22.60;44.20
85191;DHT22;75560;0.000;0.000;2024-03-02T12:28:51;22.60;44.40
85191;DHT22;75560;0.000;0.000;2024-03-02T12:31:17;22.60;44.70
85191;DHT22;75560;0.000;0.000;2024-03-02T12:33:43;22.50;45.00
85191;DHT22;75560;0.000;0.000;2024-03-02T12:36:13;22.40;44.60
85191;DHT22;75560;0.000;0.000;2024-03-02T12:38:46;22.40;45.00
85191;DHT22;75560;0.000;0.000;2024-03-02T12:41:15;22.50;45.20
85191;DHT22;75560;0.000;0.000;2024-03-02T12:43:41;22.30;45.00
85191;DHT22;75560;0.000;0.000;2024-03-02T12:46:07;22.50;45.00
85191;DHT22;75560;0.000;0.000;2024-03-02T12:48:32;22.40;45.00
85191;DHT22;75560;0.000;0.000;2024-03-02T12:50:58;22.30;45.30
85191;DHT22;75560;0.000;0.000;2024-03-02T12:53:24;22.30;45.50
85191;DHT22;75560;0.000;0.000;2024-03-02T12:55:50;22.20;45.70
85191;DHT22;75560;0.000;0.000;2024-03-02T12:58:20;22.10;46.00
85191;DHT22;75560;0.000;0.000;2024-03-02T13:00:48;22.10;45.80
85191;DHT22;75560;0.000;0.000;2024-03-02T13:03:14;22.20;45.70
85191;DHT22;75560;0.000;0.000;2024-03-02T13:05:41;22.30;45.70
85191;DHT22;75560;0.000;0.000;2024-03-02T13:08:07;22.40;45.20
85191;DHT22;75560;0.000;0.000;2024-03-02T13:10:33;22.30;45.20
85191;DHT22;75560;0.000;0.000;2024-03-02T13:13:00;22.30;45.00
85191;DHT22;75560;0.000;0.000;2024-03-02T13:15:26;22.40;44.90
85191;DHT22;75560;0.000;0.000;2024-03-02T13:17:52;22.50;44.80
85191;DHT22;75560;0.000;0.000;2024-03-02T13:20:18;22.50;44.10
85191;DHT22;75560;0.000;0.000;2024-03-02T13:22:45;22.70;44.10
85191;DHT22;75560;0.000;0.000;2024-03-02T13:25:10;22.90;43.70
85191;DHT22;75560;0.000;0.000;2024-03-02T13:27:36;23.00;43.80
85191;DHT22;75560;0.000;0.000;2024-03-02T13:30:05;22.90;43.70
85191;DHT22;75560;0.000;0.000;2024-03-02T13:32:31;22.90;44.00
85191;DHT22;75560;0.000;0.000;2024-03-02T13:34:57;22.90;43.60
85191;DHT22;75560;0.000;0.000;2024-03-02T13:37:23;22.80;43.90
85191;DHT22;75560;0.000;0.000;2024-03-02T13:39:48;22.80;43.90
85191;DHT22;75560;0.000;0.000;2024-03-02T13:42:14;22.70;44.30
85191;DHT22;75560;0.000;0.000;2024-03-02T13:44:42;22.70;44.60
85191;DHT22;75560;0.000;0.000;2024-03-02T13:47:09;22.60;44.50
85191;DHT22;75560;0.000;0.000;2024-03-02T13:49:35;22.60;44.60
85191;DHT22;75560;0.000;0.000;2024-03-02T13:52:06;22.50;44.80
85191;DHT22;75560;0.000;0.000;2024-03-02T13:54:39;22.40;44.90
85191;DHT22;75560;0.000;0.000;2024-03-02T13:57:05;22.40;44.90
85191;DHT22;75560;0.000;0.000;2024-03-02T13:59:31;22.40;44.80
85191;DHT22;75560;0.000;0.000;2024-03-02T14:01:57;22.30;45.00
85191;DHT22;75560;0.000;0.000;2024-03-02T14:04:22;22.20;45.00
85191;DHT22;75560;0.000;0.000;2024-03-02T14:06:48;22.20;45.00
85191;DHT22;75560;0.000;0.000;2024-03-02T14:09:13;22.10;45.30
85191;DHT22;75560;0.000;0.000;2024-03-02T14:11:39;22.00;45.30
85191;DHT22;75560;0.000;0.000;2024-03-02T14:14:04;22.00;45.30
85191;DHT22;75560;0.000;0.000;2024-03-02T14:16:30;22.00;45.50
85191;DHT22;75560;0.000;0.000;2024-03-02T14:18:56;21.90;45.80
85191;DHT22;75560;0.000;0.000;2024-03-02T14:21:21;21.90;45.90
85191;DHT22;75560;0.000;0.000;2024-03-02T14:23:47;21.80;45.40
85191;DHT22;75560;0.000;0.000;2024-03-02T14:26:12;21.80;46.10
85191;DHT22;75560;0.000;0.000;2024-03-02T14:28:38;21.70;46.00
85191;DHT22;75560;0.000;0.000;2024-03-02T14:31:04;21.70;45.70
85191;DHT22;75560;0.000;0.000;2024-03-02T14:33:29;21.80;45.90
85191;DHT22;75560;0.000;0.000;2024-03-02T14:35:55;21.80;45.80
85191;DHT22;75560;0.000;0.000;2024-03-02T14:38:21;21.80;45.50
85191;DHT22;75560;0.000;0.000;2024-03-02T14:40:47;21.90;46.10
85191;DHT22;75560;0.000;0.000;2024-03-02T14:43:12;22.00;45.30
85191;DHT22;75560;0.000;0.000;2024-03-02T14:45:38;22.20;44.70
85191;DHT22;75560;0.000;0.000;2024-03-02T14:48:04;22.40;44.30
85191;DHT22;75560;0.000;0.000;2024-03-02T14:50:30;22.40;44.00
85191;DHT22;75560;0.000;0.000;2024-03-02T14:52:55;22.30;43.90
85191;DHT22;75560;0.000;0.000;2024-03-02T14:55:24;22.40;43.70
85191;DHT22;75560;0.000;0.000;2024-03-02T14:57:50;22.30;44.10
85191;DHT22;75560;0.000;0.000;2024-03-02T15:00:16;22.10;44.50
85191;DHT22;75560;0.000;0.000;2024-03-02T15:02:41;22.10;45.50
85191;DHT22;75560;0.000;0.000;2024-03-02T15:05:07;22.20;45.00
85191;DHT22;75560;0.000;0.000;2024-03-02T15:07:33;22.30;45.20
85191;DHT22;75560;0.000;0.000;2024-03-02T15:09:59;22.30;45.10
85191;DHT22;75560;0.000;0.000;2024-03-02T15:12:24;22.20;45.50
85191;DHT22;75560;0.000;0.000;2024-03-02T15:14:50;22.10;45.70
85191;DHT22;75560;0.000;0.000;2024-03-02T15:17:16;22.10;45.80
85191;DHT22;75560;0.000;0.000;2024-03-02T15:19:46;21.90;46.30
85191;DHT22;75560;0.000;0.000;2024-03-02T15:22:12;21.90;45.90
85191;DHT22;75560;0.000;0.000;2024-03-02T15:24:37;21.90;46.40
85191;DHT22;75560;0.000;0.000;2024-03-02T15:27:04;21.90;46.50
85191;DHT22;75560;0.000;0.000;2024-03-02T15:29:31;21.90;46.50
85191;DHT22;75560;0.000;0.000;2024-03-02T15:31:57;21.80;46.40
85191;DHT22;75560;0.000;0.000;2024-03-02T15:34:23;21.80;46.60
85191;DHT22;75560;0.000;0.000;2024-03-02T15:36:49;21.70;46.80
85191;DHT22;75560;0.000;0.000;2024-03-02T15:39:14;21.70;46.80
85191;DHT22;75560;0.000;0.000;2024-03-02T15:41:40;21.70;46.90
85191;DHT22;75560;0.000;0.000;2024-03-02T15:44:22;21.70;47.10
85191;DHT22;75560;0.000;0.000;2024-03-02T15:46:48;21.60;46.60